sensor_id;sensor_type;location;lat;lon;timestamp;temperature;humidity
8422;DHT22;4248;48.196;10.924;2022-07-29T00:01:34;18.80;57.30
8422;DHT22;4248;48.196;10.924;2022-07-29T00:04:00;18.80;57.20
8422;DHT22;4248;48.196;10.924;2022-07-29T00:06:25;18.80;57.10
8422;DHT22;4248;48.196;10.924;2022-07-29T00:08:51;18.80;56.90
8422;DHT22;4248;48.196;10.924;2022-07-29T00:11:17;18.80;56.90
8422;DHT22;4248;48.196;10.924;2022-07-29T00:13:42;18.80;56.90
8422;DHT22;4248;48.196;10.924;2022-07-29T00:16:08;18.80;57.00
8422;DHT22;4248;48.196;10.924;2022-07-29T00:18:33;18.80;57.20
8422;DHT22;4248;48.196;10.924;2022-07-29T00:20:59;18.70;57.60
8422;DHT22;4248;48.196;10.924;2022-07-29T00:23:25;18.70;58.20
8422;DHT22;4248;48.196;10.924;2022-07-29T00:25:50;18.70;58.90
8422;DHT22;4248;48.196;10.924;2022-07-29T00:28:16;18.60;59.50
8422;DHT22;4248;48.196;10.924;2022-07-29T00:30:42;18.60;59.60
8422;DHT22;4248;48.196;10.924;2022-07-29T00:33:09;18.60;59.60
8422;DHT22;4248;48.196;10.924;2022-07-29T00:35:34;18.60;59.60
8422;DHT22;4248;48.196;10.924;2022-07-29T00:38:13;18.50;59.50
8422;DHT22;4248;48.196;10.924;2022-07-29T00:40:40;18.50;59.50
8422;DHT22;4248;48.196;10.924;2022-07-29T00:43:06;18.50;59.50
8422;DHT22;4248;48.196;10.924;2022-07-29T00:45:31;18.50;59.50
8422;DHT22;4248;48.196;10.924;2022-07-29T00:47:57;18.50;59.50
8422;DHT22;4248;48.196;10.924;2022-07-29T00:50:23;18.60;59.60
8422;DHT22;4248;48.196;10.924;2022-07-29T00:52:50;18.60;59.60
8422;DHT22;4248;48.196;10.924;2022-07-29T00:55:17;18.50;59.50
8422;DHT22;4248;48.196;10.924;2022-07-29T00:57:44;18.40;59.70
8422;DHT22;4248;48.196;10.924;2022-07-29T01:00:14;18.40;60.00
8422;DHT22;4248;48.196;10.924;2022-07-29T01:02:40;18.40;60.00
8422;DHT22;4248;48.196;10.924;2022-07-29T01:05:06;18.40;60.30
8422;DHT22;4248;48.196;10.924;2022-07-29T01:07:34;18.40;60.20
8422;DHT22;4248;48.196;10.924;2022-07-29T01:10:02;18.40;60.10
8422;DHT22;4248;48.196;10.924;2022-07-29T01:12:30;18.30;60.50
8422;DHT22;4248;48.196;10.924;2022-07-29T01:15:00;18.20;60.90
8422;DHT22;4248;48.196;10.924;2022-07-29T01:20:44;18.10;61.00
8422;DHT22;4248;48.196;10.924;2022-07-29T01:29:30;18.10;61.10
8422;DHT22;4248;48.196;10.924;2022-07-29T01:32:14;18.00;60.90
8422;DHT22;4248;48.196;10.924;2022-07-29T01:34:50;17.90;61.10
8422;DHT22;4248;48.196;10.924;2022-07-29T01:37:26;17.90;61.40
8422;DHT22;4248;48.196;10.924;2022-07-29T01:39:56;17.80;61.50
8422;DHT22;4248;48.196;10.924;2022-07-29T01:42:47;17.70;62.10
8422;DHT22;4248;48.196;10.924;2022-07-29T01:45:21;17.60;62.60
8422;DHT22;4248;48.196;10.924;2022-07-29T01:48:21;17.50;62.60
8422;DHT22;4248;48.196;10.924;2022-07-29T01:50:48;17.50;62.70
8422;DHT22;4248;48.196;10.924;2022-07-29T01:53:21;17.40;62.50
8422;DHT22;4248;48.196;10.924;2022-07-29T01:55:48;17.40;62.60
8422;DHT22;4248;48.196;10.924;2022-07-29T01:58:18;17.40;62.70
8422;DHT22;4248;48.196;10.924;2022-07-29T02:00:45;17.30;62.60
8422;DHT22;4248;48.196;10.924;2022-07-29T02:03:12;17.30;62.80
8422;DHT22;4248;48.196;10.924;2022-07-29T02:05:40;17.30;62.90
8422;DHT22;4248;48.196;10.924;2022-07-29T02:08:08;17.20;63.10
8422;DHT22;4248;48.196;10.924;2022-07-29T02:10:35;17.20;63.20
8422;DHT22;4248;48.196;10.924;2022-07-29T02:13:03;17.20;63.10
8422;DHT22;4248;48.196;10.924;2022-07-29T02:15:31;17.20;63.10
8422;DHT22;4248;48.196;10.924;2022-07-29T02:18:15;17.10;63.20
8422;DHT22;4248;48.196;10.924;2022-07-29T02:20:45;17.10;63.40
8422;DHT22;4248;48.196;10.924;2022-07-29T02:23:12;17.10;63.30
8422;DHT22;4248;48.196;10.924;2022-07-29T02:25:41;17.10;63.30
8422;DHT22;4248;48.196;10.924;2022-07-29T02:28:07;17.00;63.40
8422;DHT22;4248;48.196;10.924;2022-07-29T02:30:35;17.00;63.50
8422;DHT22;4248;48.196;10.924;2022-07-29T02:33:02;17.00;63.70
8422;DHT22;4248;48.196;10.924;2022-07-29T02:35:29;17.00;63.80
8422;DHT22;4248;48.196;10.924;2022-07-29T02:37:55;16.90;64.00
8422;DHT22;4248;48.196;10.924;2022-07-29T02:40:44;17.00;64.50
8422;DHT22;4248;48.196;10.924;2022-07-29T02:43:10;16.80;64.40
8422;DHT22;4248;48.196;10.924;2022-07-29T02:45:36;16.80;64.50
8422;DHT22;4248;48.196;10.924;2022-07-29T02:48:08;16.80;64.40
8422;DHT22;4248;48.196;10.924;2022-07-29T02:50:38;16.80;64.30
8422;DHT22;4248;48.196;10.924;2022-07-29T02:53:12;16.70;64.30
8422;DHT22;4248;48.196;10.924;2022-07-29T02:55:43;16.70;64.50
8422;DHT22;4248;48.196;10.924;2022-07-29T02:58:30;16.70;64.50
8422;DHT22;4248;48.196;10.924;2022-07-29T03:00:59;16.70;64.40
8422;DHT22;4248;48.196;10.924;2022-07-29T03:03:29;16.70;64.40
8422;DHT22;4248;48.196;10.924;2022-07-29T03:05:57;16.60;64.30
8422;DHT22;4248;48.196;10.924;2022-07-29T03:08:26;16.60;64.30
8422;DHT22;4248;48.196;10.924;2022-07-29T03:10:53;16.60;64.50
8422;DHT22;4248;48.196;10.924;2022-07-29T03:13:19;16.60;64.50
8422;DHT22;4248;48.196;10.924;2022-07-29T03:15:46;16.60;64.60
8422;DHT22;4248;48.196;10.924;2022-07-29T03:18:12;16.50;65.00
8422;DHT22;4248;48.196;10.924;2022-07-29T03:20:38;16.40;65.70
8422;DHT22;4248;48.196;10.924;2022-07-29T03:23:04;16.30;66.10
8422;DHT22;4248;48.196;10.924;2022-07-29T03:25:30;16.30;66.30
8422;DHT22;4248;48.196;10.924;2022-07-29T03:27:56;16.30;66.20
8422;DHT22;4248;48.196;10.924;2022-07-29T03:30:22;16.30;66.10
8422;DHT22;4248;48.196;10.924;2022-07-29T03:32:49;16.40;65.80
8422;DHT22;4248;48.196;10.924;2022-07-29T03:35:15;16.50;65.70
8422;DHT22;4248;48.196;10.924;2022-07-29T03:37:42;16.50;65.40
8422;DHT22;4248;48.196;10.924;2022-07-29T03:40:10;16.50;65.50
8422;DHT22;4248;48.196;10.924;2022-07-29T03:42:39;16.40;65.70
8422;DHT22;4248;48.196;10.924;2022-07-29T03:45:07;16.40;66.10
8422;DHT22;4248;48.196;10.924;2022-07-29T03:47:35;16.40;66.20
8422;DHT22;4248;48.196;10.924;2022-07-29T03:50:06;16.40;65.90
8422;DHT22;4248;48.196;10.924;2022-07-29T03:52:32;16.50;65.60
8422;DHT22;4248;48.196;10.924;2022-07-29T03:54:58;16.50;65.50
8422;DHT22;4248;48.196;10.924;2022-07-29T03:57:27;16.50;65.70
8422;DHT22;4248;48.196;10.924;2022-07-29T03:59:53;16.40;66.10
8422;DHT22;4248;48.196;10.924;2022-07-29T04:02:19;16.30;66.40
8422;DHT22;4248;48.196;10.924;2022-07-29T04:04:45;16.40;66.40
8422;DHT22;4248;48.196;10.924;2022-07-29T04:07:12;16.50;66.10
8422;DHT22;4248;48.196;10.924;2022-07-29T04:09:38;16.50;65.80
8422;DHT22;4248;48.196;10.924;2022-07-29T04:12:04;16.60;65.70
8422;DHT22;4248;48.196;10.924;2022-07-29T04:14:31;16.60;65.40
8422;DHT22;4248;48.196;10.924;2022-07-29T04:16:57;16.60;65.40
8422;DHT22;4248;48.196;10.924;2022-07-29T04:19:22;16.60;65.50
8422;DHT22;4248;48.196;10.924;2022-07-29T04:21:48;16.60;65.80
8422;DHT22;4248;48.196;10.924;2022-07-29T04:24:13;16.70;65.50
8422;DHT22;4248;48.196;10.924;2022-07-29T04:26:39;16.80;65.20
8422;DHT22;4248;48.196;10.924;2022-07-29T04:29:05;16.90;64.70
8422;DHT22;4248;48.196;10.924;2022-07-29T04:31:30;17.00;64.70
8422;DHT22;4248;48.196;10.924;2022-07-29T04:33:56;17.00;64.70
8422;DHT22;4248;48.196;10.924;2022-07-29T04:36:21;17.10;64.60
8422;DHT22;4248;48.196;10.924;2022-07-29T04:38:47;17.20;65.40
8422;DHT22;4248;48.196;10.924;2022-07-29T04:41:12;17.30;63.90
8422;DHT22;4248;48.196;10.924;2022-07-29T04:43:38;17.30;63.60
8422;DHT22;4248;48.196;10.924;2022-07-29T04:46:06;17.40;63.50
8422;DHT22;4248;48.196;10.924;2022-07-29T04:48:32;17.50;63.30
8422;DHT22;4248;48.196;10.924;2022-07-29T04:50:58;17.60;63.30
8422;DHT22;4248;48.196;10.924;2022-07-29T04:53:24;17.70;63.30
8422;DHT22;4248;48.196;10.924;2022-07-29T04:55:50;17.80;63.00
8422;DHT22;4248;48.196;10.924;2022-07-29T04:58:16;17.90;62.70
8422;DHT22;4248;48.196;10.924;2022-07-29T05:00:41;18.30;62.50
8422;DHT22;4248;48.196;10.924;2022-07-29T05:03:07;19.40;62.00
8422;DHT22;4248;48.196;10.924;2022-07-29T05:05:33;20.40;61.10
8422;DHT22;4248;48.196;10.924;2022-07-29T05:07:58;21.30;58.80
8422;DHT22;4248;48.196;10.924;2022-07-29T05:10:24;22.20;56.70
8422;DHT22;4248;48.196;10.924;2022-07-29T05:12:50;23.00;53.90
8422;DHT22;4248;48.196;10.924;2022-07-29T05:15:15;23.70;51.10
8422;DHT22;4248;48.196;10.924;2022-07-29T05:17:43;24.60;48.20
8422;DHT22;4248;48.196;10.924;2022-07-29T05:20:09;25.40;45.50
8422;DHT22;4248;48.196;10.924;2022-07-29T05:22:35;25.90;42.70
8422;DHT22;4248;48.196;10.924;2022-07-29T05:25:01;26.30;40.90
8422;DHT22;4248;48.196;10.924;2022-07-29T05:27:27;26.60;39.70
8422;DHT22;4248;48.196;10.924;2022-07-29T05:29:53;27.10;39.00
8422;DHT22;4248;48.196;10.924;2022-07-29T05:32:18;27.30;37.40
8422;DHT22;4248;48.196;10.924;2022-07-29T05:34:44;27.70;35.90
8422;DHT22;4248;48.196;10.924;2022-07-29T05:37:10;28.00;34.30
8422;DHT22;4248;48.196;10.924;2022-07-29T05:39:36;28.20;33.40
8422;DHT22;4248;48.196;10.924;2022-07-29T05:42:01;28.20;32.90
8422;DHT22;4248;48.196;10.924;2022-07-29T05:44:27;28.40;31.70
8422;DHT22;4248;48.196;10.924;2022-07-29T05:46:52;29.10;29.60
8422;DHT22;4248;48.196;10.924;2022-07-29T05:49:18;29.60;28.40
8422;DHT22;4248;48.196;10.924;2022-07-29T05:51:44;29.90;27.20
8422;DHT22;4248;48.196;10.924;2022-07-29T05:54:09;30.00;26.30
8422;DHT22;4248;48.196;10.924;2022-07-29T05:56:36;30.30;25.50
8422;DHT22;4248;48.196;10.924;2022-07-29T05:59:02;30.60;24.60
8422;DHT22;4248;48.196;10.924;2022-07-29T06:01:28;30.30;24.30
8422;DHT22;4248;48.196;10.924;2022-07-29T06:03:54;30.40;23.90
8422;DHT22;4248;48.196;10.924;2022-07-29T06:06:19;30.50;23.60
8422;DHT22;4248;48.196;10.924;2022-07-29T06:08:45;30.80;22.90
8422;DHT22;4248;48.196;10.924;2022-07-29T06:11:11;30.90;22.40
8422;DHT22;4248;48.196;10.924;2022-07-29T06:13:36;31.10;21.60
8422;DHT22;4248;48.196;10.924;2022-07-29T06:16:02;31.40;21.00
8422;DHT22;4248;48.196;10.924;2022-07-29T06:18:28;31.40;20.20
8422;DHT22;4248;48.196;10.924;2022-07-29T06:20:54;31.60;19.60
8422;DHT22;4248;48.196;10.924;2022-07-29T06:23:20;32.00;18.60
8422;DHT22;4248;48.196;10.924;2022-07-29T06:25:46;31.60;18.80
8422;DHT22;4248;48.196;10.924;2022-07-29T06:28:12;30.30;22.10
8422;DHT22;4248;48.196;10.924;2022-07-29T06:30:38;29.20;24.60
8422;DHT22;4248;48.196;10.924;2022-07-29T06:33:04;28.20;26.60
8422;DHT22;4248;48.196;10.924;2022-07-29T06:35:32;27.60;27.40
8422;DHT22;4248;48.196;10.924;2022-07-29T06:37:58;28.40;24.20
8422;DHT22;4248;48.196;10.924;2022-07-29T06:40:24;29.30;21.40
8422;DHT22;4248;48.196;10.924;2022-07-29T06:43:08;29.40;20.70
8422;DHT22;4248;48.196;10.924;2022-07-29T06:45:34;28.80;22.70
8422;DHT22;4248;48.196;10.924;2022-07-29T06:48:00;28.10;24.80
8422;DHT22;4248;48.196;10.924;2022-07-29T06:50:25;27.60;26.70
8422;DHT22;4248;48.196;10.924;2022-07-29T06:52:51;27.40;27.20
8422;DHT22;4248;48.196;10.924;2022-07-29T06:55:17;27.20;28.30
8422;DHT22;4248;48.196;10.924;2022-07-29T06:57:45;27.10;28.50
8422;DHT22;4248;48.196;10.924;2022-07-29T07:00:11;27.00;28.10
8422;DHT22;4248;48.196;10.924;2022-07-29T07:02:37;26.80;27.90
8422;DHT22;4248;48.196;10.924;2022-07-29T07:05:03;27.00;27.30
8422;DHT22;4248;48.196;10.924;2022-07-29T07:07:28;27.00;27.00
8422;DHT22;4248;48.196;10.924;2022-07-29T07:09:54;27.10;26.70
8422;DHT22;4248;48.196;10.924;2022-07-29T07:12:20;27.00;26.30
8422;DHT22;4248;48.196;10.924;2022-07-29T07:14:45;26.90;26.10
8422;DHT22;4248;48.196;10.924;2022-07-29T07:17:11;26.60;26.10
8422;DHT22;4248;48.196;10.924;2022-07-29T07:19:36;26.60;25.40
8422;DHT22;4248;48.196;10.924;2022-07-29T07:22:02;26.70;25.10
8422;DHT22;4248;48.196;10.924;2022-07-29T07:24:27;26.80;24.70
8422;DHT22;4248;48.196;10.924;2022-07-29T07:26:53;27.00;24.70
8422;DHT22;4248;48.196;10.924;2022-07-29T07:29:18;27.00;24.70
8422;DHT22;4248;48.196;10.924;2022-07-29T07:31:44;27.20;23.40
8422;DHT22;4248;48.196;10.924;2022-07-29T07:34:10;27.20;24.40
8422;DHT22;4248;48.196;10.924;2022-07-29T07:36:36;27.30;24.40
8422;DHT22;4248;48.196;10.924;2022-07-29T07:39:02;27.30;24.30
8422;DHT22;4248;48.196;10.924;2022-07-29T07:41:28;26.90;23.00
8422;DHT22;4248;48.196;10.924;2022-07-29T07:43:54;26.90;23.90
8422;DHT22;4248;48.196;10.924;2022-07-29T07:46:19;26.90;24.70
8422;DHT22;4248;48.196;10.924;2022-07-29T07:48:45;26.90;24.10
8422;DHT22;4248;48.196;10.924;2022-07-29T07:51:11;26.80;24.20
8422;DHT22;4248;48.196;10.924;2022-07-29T07:53:36;26.80;24.10
8422;DHT22;4248;48.196;10.924;2022-07-29T07:56:03;26.90;23.90
8422;DHT22;4248;48.196;10.924;2022-07-29T07:58:30;26.90;23.80
8422;DHT22;4248;48.196;10.924;2022-07-29T08:00:55;26.90;23.90
8422;DHT22;4248;48.196;10.924;2022-07-29T08:03:21;26.70;24.10
8422;DHT22;4248;48.196;10.924;2022-07-29T08:05:46;26.50;24.40
8422;DHT22;4248;48.196;10.924;2022-07-29T08:08:13;26.40;24.50
8422;DHT22;4248;48.196;10.924;2022-07-29T08:10:39;26.30;24.80
8422;DHT22;4248;48.196;10.924;2022-07-29T08:13:26;26.30;24.90
8422;DHT22;4248;48.196;10.924;2022-07-29T08:15:53;26.10;25.00
8422;DHT22;4248;48.196;10.924;2022-07-29T08:18:30;26.00;25.20
8422;DHT22;4248;48.196;10.924;2022-07-29T08:20:57;26.10;25.40
8422;DHT22;4248;48.196;10.924;2022-07-29T08:23:22;26.20;25.40
8422;DHT22;4248;48.196;10.924;2022-07-29T08:25:49;26.30;25.50
8422;DHT22;4248;48.196;10.924;2022-07-29T08:28:15;26.30;25.40
8422;DHT22;4248;48.196;10.924;2022-07-29T08:30:41;26.40;25.40
8422;DHT22;4248;48.196;10.924;2022-07-29T08:33:06;26.30;25.80
8422;DHT22;4248;48.196;10.924;2022-07-29T08:35:32;26.10;26.20
8422;DHT22;4248;48.196;10.924;2022-07-29T08:37:58;26.20;26.00
8422;DHT22;4248;48.196;10.924;2022-07-29T08:40:23;26.20;26.00
8422;DHT22;4248;48.196;10.924;2022-07-29T08:42:50;26.30;26.00
8422;DHT22;4248;48.196;10.924;2022-07-29T08:45:16;26.60;25.70
8422;DHT22;4248;48.196;10.924;2022-07-29T08:47:44;26.70;26.40
8422;DHT22;4248;48.196;10.924;2022-07-29T08:50:11;27.00;24.90
8422;DHT22;4248;48.196;10.924;2022-07-29T08:52:39;27.40;24.20
8422;DHT22;4248;48.196;10.924;2022-07-29T08:55:07;27.70;23.80
8422;DHT22;4248;48.196;10.924;2022-07-29T08:57:33;27.90;23.40
8422;DHT22;4248;48.196;10.924;2022-07-29T09:00:01;28.00;23.50
8422;DHT22;4248;48.196;10.924;2022-07-29T09:02:29;27.90;23.30
8422;DHT22;4248;48.196;10.924;2022-07-29T09:05:00;28.10;23.00
8422;DHT22;4248;48.196;10.924;2022-07-29T09:07:26;28.30;22.60
8422;DHT22;4248;48.196;10.924;2022-07-29T09:09:52;28.30;22.70
8422;DHT22;4248;48.196;10.924;2022-07-29T09:12:18;28.20;23.10
8422;DHT22;4248;48.196;10.924;2022-07-29T09:14:44;28.10;23.30
8422;DHT22;4248;48.196;10.924;2022-07-29T09:17:10;28.30;23.10
8422;DHT22;4248;48.196;10.924;2022-07-29T09:19:37;28.40;23.00
8422;DHT22;4248;48.196;10.924;2022-07-29T09:22:06;28.70;23.00
8422;DHT22;4248;48.196;10.924;2022-07-29T09:27:22;28.30;23.20
8422;DHT22;4248;48.196;10.924;2022-07-29T09:30:03;28.20;23.50
8422;DHT22;4248;48.196;10.924;2022-07-29T09:32:29;28.00;23.80
8422;DHT22;4248;48.196;10.924;2022-07-29T09:35:22;27.90;23.90
8422;DHT22;4248;48.196;10.924;2022-07-29T09:37:48;27.90;24.10
8422;DHT22;4248;48.196;10.924;2022-07-29T09:40:16;28.00;24.20
8422;DHT22;4248;48.196;10.924;2022-07-29T09:42:43;28.20;24.00
8422;DHT22;4248;48.196;10.924;2022-07-29T09:45:09;28.00;24.20
8422;DHT22;4248;48.196;10.924;2022-07-29T09:47:46;28.00;24.30
8422;DHT22;4248;48.196;10.924;2022-07-29T09:50:14;28.00;23.80
8422;DHT22;4248;48.196;10.924;2022-07-29T09:52:48;28.00;24.00
8422;DHT22;4248;48.196;10.924;2022-07-29T09:55:15;27.80;24.40
8422;DHT22;4248;48.196;10.924;2022-07-29T09:57:41;27.60;24.70
8422;DHT22;4248;48.196;10.924;2022-07-29T10:00:08;27.40;25.10
8422;DHT22;4248;48.196;10.924;2022-07-29T10:02:37;27.20;25.70
8422;DHT22;4248;48.196;10.924;2022-07-29T10:05:05;27.30;25.60
8422;DHT22;4248;48.196;10.924;2022-07-29T10:07:46;27.30;25.30
8422;DHT22;4248;48.196;10.924;2022-07-29T10:10:19;27.50;25.40
8422;DHT22;4248;48.196;10.924;2022-07-29T10:12:52;27.40;24.90
8422;DHT22;4248;48.196;10.924;2022-07-29T10:15:18;27.40;25.20
8422;DHT22;4248;48.196;10.924;2022-07-29T10:17:46;27.60;25.10
8422;DHT22;4248;48.196;10.924;2022-07-29T10:20:14;27.90;24.20
8422;DHT22;4248;48.196;10.924;2022-07-29T10:22:41;28.00;23.70
8422;DHT22;4248;48.196;10.924;2022-07-29T10:25:08;27.80;23.70
8422;DHT22;4248;48.196;10.924;2022-07-29T10:27:35;27.60;23.70
8422;DHT22;4248;48.196;10.924;2022-07-29T10:30:01;27.70;23.90
8422;DHT22;4248;48.196;10.924;2022-07-29T10:44:21;28.50;21.90
8422;DHT22;4248;48.196;10.924;2022-07-29T10:46:48;28.90;21.40
8422;DHT22;4248;48.196;10.924;2022-07-29T10:49:20;28.70;21.50
8422;DHT22;4248;48.196;10.924;2022-07-29T10:52:07;28.40;21.50
8422;DHT22;4248;48.196;10.924;2022-07-29T10:54:44;28.40;22.20
8422;DHT22;4248;48.196;10.924;2022-07-29T10:59:44;28.20;22.30
8422;DHT22;4248;48.196;10.924;2022-07-29T11:07:24;27.60;21.90
8422;DHT22;4248;48.196;10.924;2022-07-29T11:15:26;27.20;22.40
8422;DHT22;4248;48.196;10.924;2022-07-29T11:20:38;26.80;23.40
8422;DHT22;4248;48.196;10.924;2022-07-29T11:23:27;27.00;23.30
8422;DHT22;4248;48.196;10.924;2022-07-29T11:26:14;27.30;22.60
8422;DHT22;4248;48.196;10.924;2022-07-29T11:28:57;27.50;22.00
8422;DHT22;4248;48.196;10.924;2022-07-29T11:31:41;27.70;21.80
8422;DHT22;4248;48.196;10.924;2022-07-29T11:34:30;27.90;21.50
8422;DHT22;4248;48.196;10.924;2022-07-29T11:39:33;28.20;21.20
8422;DHT22;4248;48.196;10.924;2022-07-29T11:44:55;28.10;21.10
8422;DHT22;4248;48.196;10.924;2022-07-29T11:47:22;28.50;20.40
8422;DHT22;4248;48.196;10.924;2022-07-29T11:49:48;28.50;20.50
8422;DHT22;4248;48.196;10.924;2022-07-29T11:52:14;28.40;20.70
8422;DHT22;4248;48.196;10.924;2022-07-29T11:54:42;28.40;20.50
8422;DHT22;4248;48.196;10.924;2022-07-29T11:57:08;28.60;20.10
8422;DHT22;4248;48.196;10.924;2022-07-29T11:59:41;28.60;19.90
8422;DHT22;4248;48.196;10.924;2022-07-29T12:02:10;28.80;19.30
8422;DHT22;4248;48.196;10.924;2022-07-29T12:04:55;29.10;18.80
8422;DHT22;4248;48.196;10.924;2022-07-29T12:07:29;29.10;18.30
8422;DHT22;4248;48.196;10.924;2022-07-29T12:09:55;29.50;17.30
8422;DHT22;4248;48.196;10.924;2022-07-29T12:12:21;29.70;17.20
8422;DHT22;4248;48.196;10.924;2022-07-29T12:14:48;29.70;16.20
8422;DHT22;4248;48.196;10.924;2022-07-29T12:17:27;29.70;16.00
8422;DHT22;4248;48.196;10.924;2022-07-29T12:19:53;29.60;15.80
8422;DHT22;4248;48.196;10.924;2022-07-29T12:22:29;29.60;16.10
8422;DHT22;4248;48.196;10.924;2022-07-29T12:25:01;29.50;16.10
8422;DHT22;4248;48.196;10.924;2022-07-29T12:27:27;29.20;16.40
8422;DHT22;4248;48.196;10.924;2022-07-29T12:30:02;29.20;16.70
8422;DHT22;4248;48.196;10.924;2022-07-29T12:32:35;29.20;16.50
8422;DHT22;4248;48.196;10.924;2022-07-29T12:35:10;29.10;17.00
8422;DHT22;4248;48.196;10.924;2022-07-29T12:37:38;28.80;16.90
8422;DHT22;4248;48.196;10.924;2022-07-29T12:40:05;28.90;17.00
8422;DHT22;4248;48.196;10.924;2022-07-29T12:42:32;29.10;16.20
8422;DHT22;4248;48.196;10.924;2022-07-29T12:44:58;29.10;17.10
8422;DHT22;4248;48.196;10.924;2022-07-29T12:47:24;29.20;17.10
8422;DHT22;4248;48.196;10.924;2022-07-29T12:49:50;29.10;17.10
8422;DHT22;4248;48.196;10.924;2022-07-29T12:52:33;28.70;16.40
8422;DHT22;4248;48.196;10.924;2022-07-29T12:54:59;28.60;17.70
8422;DHT22;4248;48.196;10.924;2022-07-29T12:57:26;28.00;18.50
8422;DHT22;4248;48.196;10.924;2022-07-29T13:02:30;27.30;19.30
8422;DHT22;4248;48.196;10.924;2022-07-29T13:04:58;27.20;20.10
8422;DHT22;4248;48.196;10.924;2022-07-29T13:07:26;27.20;20.20
8422;DHT22;4248;48.196;10.924;2022-07-29T13:09:54;27.10;20.30
8422;DHT22;4248;48.196;10.924;2022-07-29T13:12:20;27.00;19.60
8422;DHT22;4248;48.196;10.924;2022-07-29T13:14:49;27.00;20.60
8422;DHT22;4248;48.196;10.924;2022-07-29T13:17:18;26.80;20.60
8422;DHT22;4248;48.196;10.924;2022-07-29T13:19:51;26.70;20.80
8422;DHT22;4248;48.196;10.924;2022-07-29T13:22:22;26.60;20.60
8422;DHT22;4248;48.196;10.924;2022-07-29T13:24:55;26.50;21.50
8422;DHT22;4248;48.196;10.924;2022-07-29T13:27:26;26.40;21.90
8422;DHT22;4248;48.196;10.924;2022-07-29T13:29:52;26.30;22.40
8422;DHT22;4248;48.196;10.924;2022-07-29T13:32:21;26.00;22.20
8422;DHT22;4248;48.196;10.924;2022-07-29T13:34:47;26.00;23.20
8422;DHT22;4248;48.196;10.924;2022-07-29T13:37:13;25.90;23.30
8422;DHT22;4248;48.196;10.924;2022-07-29T13:39:38;25.80;23.60
8422;DHT22;4248;48.196;10.924;2022-07-29T13:42:06;25.80;23.90
8422;DHT22;4248;48.196;10.924;2022-07-29T13:44:32;25.80;23.90
8422;DHT22;4248;48.196;10.924;2022-07-29T13:46:57;25.80;23.90
8422;DHT22;4248;48.196;10.924;2022-07-29T13:49:24;25.80;23.90
8422;DHT22;4248;48.196;10.924;2022-07-29T13:51:50;26.00;23.10
8422;DHT22;4248;48.196;10.924;2022-07-29T13:54:16;26.00;23.90
8422;DHT22;4248;48.196;10.924;2022-07-29T13:56:41;26.10;23.80
8422;DHT22;4248;48.196;10.924;2022-07-29T13:59:07;26.20;23.80
8422;DHT22;4248;48.196;10.924;2022-07-29T14:01:36;26.60;22.60
8422;DHT22;4248;48.196;10.924;2022-07-29T14:04:03;26.50;23.50
8422;DHT22;4248;48.196;10.924;2022-07-29T14:06:28;26.80;23.20
8422;DHT22;4248;48.196;10.924;2022-07-29T14:08:54;27.20;22.70
8422;DHT22;4248;48.196;10.924;2022-07-29T14:11:20;27.50;22.30
8422;DHT22;4248;48.196;10.924;2022-07-29T14:13:45;27.80;21.10
8422;DHT22;4248;48.196;10.924;2022-07-29T14:16:11;27.90;21.50
8422;DHT22;4248;48.196;10.924;2022-07-29T14:18:37;27.90;21.70
8422;DHT22;4248;48.196;10.924;2022-07-29T14:21:03;27.70;21.90
8422;DHT22;4248;48.196;10.924;2022-07-29T14:23:28;27.60;21.60
8422;DHT22;4248;48.196;10.924;2022-07-29T14:25:54;27.50;22.50
8422;DHT22;4248;48.196;10.924;2022-07-29T14:28:20;27.40;22.80
8422;DHT22;4248;48.196;10.924;2022-07-29T14:30:45;27.50;22.80
8422;DHT22;4248;48.196;10.924;2022-07-29T14:33:11;27.90;21.70
8422;DHT22;4248;48.196;10.924;2022-07-29T14:35:36;28.20;22.30
8422;DHT22;4248;48.196;10.924;2022-07-29T14:38:02;28.60;21.50
8422;DHT22;4248;48.196;10.924;2022-07-29T14:40:28;28.50;21.40
8422;DHT22;4248;48.196;10.924;2022-07-29T14:42:54;28.20;20.90
8422;DHT22;4248;48.196;10.924;2022-07-29T14:45:20;28.10;22.00
8422;DHT22;4248;48.196;10.924;2022-07-29T14:47:45;27.70;22.40
8422;DHT22;4248;48.196;10.924;2022-07-29T14:50:11;27.60;22.50
8422;DHT22;4248;48.196;10.924;2022-07-29T14:52:37;27.50;21.50
8422;DHT22;4248;48.196;10.924;2022-07-29T14:55:03;27.60;22.30
8422;DHT22;4248;48.196;10.924;2022-07-29T14:57:29;27.70;22.00
8422;DHT22;4248;48.196;10.924;2022-07-29T14:59:55;27.80;21.90
8422;DHT22;4248;48.196;10.924;2022-07-29T15:02:20;27.80;21.80
8422;DHT22;4248;48.196;10.924;2022-07-29T15:04:46;27.80;21.90
8422;DHT22;4248;48.196;10.924;2022-07-29T15:07:13;27.60;22.00
8422;DHT22;4248;48.196;10.924;2022-07-29T15:09:39;27.60;22.00
8422;DHT22;4248;48.196;10.924;2022-07-29T15:12:04;27.50;22.10
8422;DHT22;4248;48.196;10.924;2022-07-29T15:14:31;27.60;22.20
8422;DHT22;4248;48.196;10.924;2022-07-29T15:16:57;27.50;22.20
8422;DHT22;4248;48.196;10.924;2022-07-29T15:19:22;27.50;22.10
8422;DHT22;4248;48.196;10.924;2022-07-29T15:21:48;27.50;21.40
8422;DHT22;4248;48.196;10.924;2022-07-29T15:24:15;27.50;22.30
8422;DHT22;4248;48.196;10.924;2022-07-29T15:26:40;27.60;22.20
8422;DHT22;4248;48.196;10.924;2022-07-29T15:29:07;27.70;22.10
8422;DHT22;4248;48.196;10.924;2022-07-29T15:31:33;27.50;22.10
8422;DHT22;4248;48.196;10.924;2022-07-29T15:33:58;27.30;22.60
8422;DHT22;4248;48.196;10.924;2022-07-29T15:36:24;27.20;23.60
8422;DHT22;4248;48.196;10.924;2022-07-29T15:38:53;27.20;22.60
8422;DHT22;4248;48.196;10.924;2022-07-29T15:41:19;27.10;22.70
8422;DHT22;4248;48.196;10.924;2022-07-29T15:43:45;26.90;21.90
8422;DHT22;4248;48.196;10.924;2022-07-29T15:46:16;26.80;23.00
8422;DHT22;4248;48.196;10.924;2022-07-29T15:49:00;26.70;23.00
8422;DHT22;4248;48.196;10.924;2022-07-29T15:51:26;26.60;23.20
8422;DHT22;4248;48.196;10.924;2022-07-29T15:53:52;26.50;23.30
8422;DHT22;4248;48.196;10.924;2022-07-29T15:56:17;26.30;24.30
8422;DHT22;4248;48.196;10.924;2022-07-29T15:58:43;26.20;23.40
8422;DHT22;4248;48.196;10.924;2022-07-29T16:01:09;26.10;23.60
8422;DHT22;4248;48.196;10.924;2022-07-29T16:03:35;26.00;23.80
8422;DHT22;4248;48.196;10.924;2022-07-29T16:06:00;25.80;23.90
8422;DHT22;4248;48.196;10.924;2022-07-29T16:08:26;25.70;24.20
8422;DHT22;4248;48.196;10.924;2022-07-29T16:10:51;25.40;24.30
8422;DHT22;4248;48.196;10.924;2022-07-29T16:13:17;25.30;23.90
8422;DHT22;4248;48.196;10.924;2022-07-29T16:15:43;25.20;25.00
8422;DHT22;4248;48.196;10.924;2022-07-29T16:18:09;25.00;25.00
8422;DHT22;4248;48.196;10.924;2022-07-29T16:20:35;24.90;25.30
8422;DHT22;4248;48.196;10.924;2022-07-29T16:23:01;24.80;25.00
8422;DHT22;4248;48.196;10.924;2022-07-29T16:25:27;24.80;25.90
8422;DHT22;4248;48.196;10.924;2022-07-29T16:27:52;24.70;25.70
8422;DHT22;4248;48.196;10.924;2022-07-29T16:30:18;24.60;25.70
8422;DHT22;4248;48.196;10.924;2022-07-29T16:32:44;24.40;25.50
8422;DHT22;4248;48.196;10.924;2022-07-29T16:35:09;24.10;26.50
8422;DHT22;4248;48.196;10.924;2022-07-29T16:37:35;23.40;26.30